Time;durP1;ratioP1;P1;durP2;ratioP2;P2;SDS_P1;SDS_P2;PMS_P1;PMS_P2;Temp;Humidity;BMP_temperature;BMP_pressure;BME280_temperature;BME280_humidity;BME280_pressure;Samples;Min_cycle;Max_cycle;Signal;HPM_P1;HPM_P2
2023/11/10 00:01:34;;;;;;;11.13;6.82;;;;;;;;;;12980759;22;20827;-81
2023/11/10 00:06:37;;;;;;;8.77;6.00;;;;;;;;;;12980209;22;20379;-81
2023/11/10 00:11:41;;;;;;;9.95;5.75;;;;;;;;;;12979007;22;20366;-81
2023/11/10 00:16:45;;;;;;;8.87;5.77;;;;;;;;;;12979913;22;20529;-81
2023/11/10 00:21:49;;;;;;;8.00;5.47;;;;;;;;;;12979520;22;20367;-81
2023/11/10 00:26:52;;;;;;;8.63;5.27;;;;;;;;;;12979583;22;20366;-81
2023/11/10 00:31:56;;;;;;;8.23;5.63;;;;;;;;;;12979235;22;20687;-81
2023/11/10 00:36:58;;;;;;;8.63;5.83;;;;;;;;;;12979622;22;20939;-82
2023/11/10 00:42:00;;;;;;;9.87;6.07;;;;;;;;;;12979666;22;20367;-81
2023/11/10 00:47:05;;;;;;;8.97;5.50;;;;;;;;;;12978038;22;20882;-81
2023/11/10 00:52:07;;;;;;;8.70;5.60;;;;;;;;;;12977878;22;20371;-81
2023/11/10 00:57:10;;;;;;;8.75;5.75;;;;;;;;;;12979434;22;20699;-80
2023/11/10 01:02:13;;;;;;;8.32;5.85;;;;;;;;;;12977056;22;20751;-81
2023/11/10 01:07:16;;;;;;;8.43;5.57;;;;;;;;;;12979530;22;20672;-81
2023/11/10 01:12:19;;;;;;;7.95;5.65;;;;;;;;;;12979640;22;20444;-80
2023/11/10 01:17:23;;;;;;;9.63;6.45;;;;;;;;;;12977959;22;20680;-81
2023/11/10 01:22:26;;;;;;;11.80;6.97;;;;;;;;;;12974470;22;20366;-81
2023/11/10 01:27:29;;;;;;;12.55;7.60;;;;;;;;;;12975698;22;20421;-81
2023/11/10 01:32:33;;;;;;;11.43;7.22;;;;;;;;;;12978079;22;20370;-81
2023/11/10 01:37:35;;;;;;;13.20;7.63;;;;;;;;;;12978536;22;20383;-81
2023/11/10 01:42:39;;;;;;;14.37;8.03;;;;;;;;;;12977786;22;20835;-80
2023/11/10 01:47:45;;;;;;;13.10;8.10;;;;;;;;;;12978027;22;20367;-81
2023/11/10 01:52:48;;;;;;;16.50;9.05;;;;;;;;;;12977926;22;20413;-81
2023/11/10 01:57:50;;;;;;;17.67;9.40;;;;;;;;;;12977895;22;20436;-81
2023/11/10 02:02:54;;;;;;;18.17;9.68;;;;;;;;;;12977821;22;20440;-81
2023/11/10 02:07:56;;;;;;;18.55;9.70;;;;;;;;;;12977468;22;20910;-81
2023/11/10 02:12:59;;;;;;;16.63;9.97;;;;;;;;;;12976600;22;20391;-81
2023/11/10 02:18:03;;;;;;;17.87;9.90;;;;;;;;;;12975880;22;20461;-81
2023/11/10 02:23:06;;;;;;;17.88;10.25;;;;;;;;;;12976383;22;20432;-81
2023/11/10 02:28:09;;;;;;;18.35;9.63;;;;;;;;;;12976715;22;20370;-81
2023/11/10 02:33:11;;;;;;;18.30;9.20;;;;;;;;;;12977614;22;20432;-81
2023/11/10 02:38:14;;;;;;;16.90;9.00;;;;;;;;;;12977055;22;20475;-81
2023/11/10 02:43:18;;;;;;;18.00;9.73;;;;;;;;;;12976480;22;20370;-82
2023/11/10 02:48:20;;;;;;;15.38;9.30;;;;;;;;;;12977366;22;20379;-81
2023/11/10 02:53:22;;;;;;;14.45;8.85;;;;;;;;;;12976064;22;20374;-81
2023/11/10 02:58:26;;;;;;;14.00;8.33;;;;;;;;;;12976395;22;20382;-82
2023/11/10 03:03:28;;;;;;;14.95;9.00;;;;;;;;;;12977373;22;20378;-82
2023/11/10 03:08:31;;;;;;;14.57;7.93;;;;;;;;;;12977495;22;20452;-82
2023/11/10 03:31:09;;;;;;;10.75;6.80;;;;;;;;;;12971573;22;20896;-81
2023/11/10 03:36:11;;;;;;;9.93;6.10;;;;;;;;;;12980629;22;20920;-81
2023/11/10 03:41:14;;;;;;;10.25;6.15;;;;;;;;;;12981185;22;20379;-81
2023/11/10 03:46:17;;;;;;;9.00;5.80;;;;;;;;;;12980599;22;20405;-81
2023/11/10 03:51:20;;;;;;;7.93;5.60;;;;;;;;;;12979968;22;20668;-81
2023/11/10 03:56:22;;;;;;;10.40;5.45;;;;;;;;;;12980165;22;20440;-81
2023/11/10 04:01:25;;;;;;;9.50;5.28;;;;;;;;;;12980440;22;20819;-81
2023/11/10 04:06:28;;;;;;;9.83;5.60;;;;;;;;;;12980066;22;20683;-81
2023/11/10 04:11:30;;;;;;;10.02;6.40;;;;;;;;;;12980614;22;20397;-82
2023/11/10 04:16:34;;;;;;;10.95;6.57;;;;;;;;;;12979606;22;20370;-81
2023/11/10 04:21:36;;;;;;;10.70;6.82;;;;;;;;;;12980096;22;20428;-82
2023/11/10 04:26:38;;;;;;;10.57;6.70;;;;;;;;;;12979078;22;20417;-81
2023/11/10 04:31:42;;;;;;;9.87;5.73;;;;;;;;;;12979019;22;20500;-81
2023/11/10 04:36:46;;;;;;;12.10;6.40;;;;;;;;;;12978926;22;20437;-82
2023/11/10 04:41:49;;;;;;;10.35;6.45;;;;;;;;;;12979847;22;20366;-81
2023/11/10 04:46:53;;;;;;;11.73;6.70;;;;;;;;;;12979644;22;20434;-81
2023/11/10 04:51:57;;;;;;;10.43;6.00;;;;;;;;;;12978737;22;20750;-81
2023/11/10 04:56:59;;;;;;;9.85;5.38;;;;;;;;;;12979505;22;20691;-81
2023/11/10 05:02:03;;;;;;;10.55;5.70;;;;;;;;;;12979147;22;20428;-81
2023/11/10 05:07:07;;;;;;;9.35;5.70;;;;;;;;;;12977983;22;20370;-81
2023/11/10 05:12:09;;;;;;;9.63;5.80;;;;;;;;;;12977444;22;20941;-81
2023/11/10 05:17:13;;;;;;;8.25;5.70;;;;;;;;;;12978691;22;20379;-82
2023/11/10 05:22:15;;;;;;;9.50;5.28;;;;;;;;;;12978455;22;20416;-81
2023/11/10 05:27:17;;;;;;;12.32;6.03;;;;;;;;;;12977938;22;20785;-82
2023/11/10 05:32:21;;;;;;;9.88;5.50;;;;;;;;;;12978656;22;20441;-81
2023/11/10 05:37:23;;;;;;;8.93;5.72;;;;;;;;;;12977758;22;20428;-81
2023/11/10 05:42:26;;;;;;;9.73;5.90;;;;;;;;;;12978723;22;20425;-81
2023/11/10 05:47:29;;;;;;;8.73;5.50;;;;;;;;;;12977616;22;20359;-82
2023/11/10 05:52:32;;;;;;;8.73;5.40;;;;;;;;;;12976986;22;20363;-81
2023/11/10 05:57:36;;;;;;;11.60;5.37;;;;;;;;;;12978404;22;20932;-82
2023/11/10 06:02:39;;;;;;;9.73;5.53;;;;;;;;;;12975495;22;20426;-82
2023/11/10 06:07:45;;;;;;;8.77;5.43;;;;;;;;;;12976190;22;20362;-81
2023/11/10 06:12:49;;;;;;;9.80;5.45;;;;;;;;;;12977231;22;20363;-81
2023/11/10 06:17:53;;;;;;;8.15;4.93;;;;;;;;;;12975193;22;20451;-82
2023/11/10 06:22:56;;;;;;;9.18;5.40;;;;;;;;;;12976276;22;20375;-81
2023/11/10 06:27:59;;;;;;;9.60;5.72;;;;;;;;;;12976728;22;20371;-82
2023/11/10 06:33:02;;;;;;;27.45;11.88;;;;;;;;;;12975600;22;20386;-81
2023/11/10 06:38:05;;;;;;;15.25;8.02;;;;;;;;;;12975845;22;20449;-82
2023/11/10 06:43:07;;;;;;;9.07;5.57;;;;;;;;;;12975393;22;20841;-81
2023/11/10 06:48:11;;;;;;;9.18;5.82;;;;;;;;;;12972250;22;20366;-81
2023/11/10 06:53:13;;;;;;;11.10;6.57;;;;;;;;;;12976380;22;20370;-81
2023/11/10 06:58:17;;;;;;;9.88;6.35;;;;;;;;;;12978939;22;20417;-80
2023/11/10 07:03:21;;;;;;;9.65;5.43;;;;;;;;;;12969211;22;20397;-80
2023/11/10 07:08:25;;;;;;;10.40;5.27;;;;;;;;;;12978174;22;20424;-81
2023/11/10 07:13:27;;;;;;;9.45;6.32;;;;;;;;;;12980357;22;20420;-80
2023/11/10 07:18:31;;;;;;;8.93;5.82;;;;;;;;;;12980259;22;20382;-81
2023/11/10 07:23:34;;;;;;;10.43;6.97;;;;;;;;;;12981517;22;20362;-80
2023/11/10 07:28:36;;;;;;;13.15;8.10;;;;;;;;;;12980740;22;20370;-80
2023/11/10 07:33:41;;;;;;;12.82;8.55;;;;;;;;;;12979882;22;20367;-81
2023/11/10 07:38:44;;;;;;;14.20;8.33;;;;;;;;;;12981353;22;20929;-81
2023/11/10 07:43:46;;;;;;;14.70;9.32;;;;;;;;;;12980569;22;20423;-83
2023/11/10 07:48:50;;;;;;;15.15;9.35;;;;;;;;;;12979258;22;20363;-82
2023/11/10 07:53:52;;;;;;;14.47;9.17;;;;;;;;;;12980256;22;20699;-83
2023/11/10 07:58:54;;;;;;;16.20;10.20;;;;;;;;;;12979298;22;20413;-82
2023/11/10 08:03:58;;;;;;;16.33;10.10;;;;;;;;;;12978642;22;20358;-82
2023/11/10 08:09:01;;;;;;;12.95;8.68;;;;;;;;;;12979866;22;20370;-82
2023/11/10 08:14:03;;;;;;;12.77;7.60;;;;;;;;;;12979485;22;20425;-82
2023/11/10 08:19:10;;;;;;;11.35;7.80;;;;;;;;;;12978520;22;20707;-82
2023/11/10 08:24:12;;;;;;;11.23;6.63;;;;;;;;;;12980351;22;20366;-82
2023/11/10 08:29:14;;;;;;;13.05;7.22;;;;;;;;;;12979825;22;20371;-82
2023/11/10 08:34:20;;;;;;;14.75;8.38;;;;;;;;;;12978159;22;20443;-82
2023/11/10 08:39:22;;;;;;;13.10;7.68;;;;;;;;;;12978620;22;20379;-82
2023/11/10 08:44:26;;;;;;;14.23;8.50;;;;;;;;;;12978195;22;20699;-83
2023/11/10 08:49:30;;;;;;;15.20;8.50;;;;;;;;;;12978236;22;20900;-82
2023/11/10 08:54:33;;;;;;;17.85;9.02;;;;;;;;;;12977981;22;20710;-82
2023/11/10 08:59:35;;;;;;;16.20;8.68;;;;;;;;;;12978106;22;20394;-82
2023/11/10 09:04:39;;;;;;;16.92;9.20;;;;;;;;;;12979688;22;20397;-82
2023/11/10 09:09:41;;;;;;;17.10;10.03;;;;;;;;;;12977336;22;20367;-82
2023/11/10 09:14:44;;;;;;;16.20;9.10;;;;;;;;;;12977597;22;20366;-82
2023/11/10 09:19:48;;;;;;;15.87;8.70;;;;;;;;;;12978472;22;20382;-82
2023/11/10 09:24:50;;;;;;;15.50;8.93;;;;;;;;;;12979123;22;20363;-82
2023/11/10 09:29:53;;;;;;;16.50;8.50;;;;;;;;;;12977787;22;20909;-82
2023/11/10 09:34:57;;;;;;;16.70;8.48;;;;;;;;;;12977901;22;20378;-83
2023/11/10 09:39:59;;;;;;;12.70;7.65;;;;;;;;;;12976605;22;20378;-82
2023/11/10 09:45:03;;;;;;;10.60;6.20;;;;;;;;;;12977318;22;20423;-82
2023/11/10 09:50:08;;;;;;;11.37;6.70;;;;;;;;;;12978070;22;20363;-82
2023/11/10 09:55:11;;;;;;;9.57;6.00;;;;;;;;;;12974525;22;20363;-81
2023/11/10 10:00:14;;;;;;;10.60;5.90;;;;;;;;;;12975105;22;20379;-80
2023/11/10 10:05:18;;;;;;;28.88;13.55;;;;;;;;;;12972935;22;20386;-81
2023/11/10 10:10:22;;;;;;;9.98;6.40;;;;;;;;;;12973568;22;20374;-80
2023/11/10 10:15:29;;;;;;;18.17;9.00;;;;;;;;;;12973311;22;20363;-80
2023/11/10 10:20:33;;;;;;;15.13;8.60;;;;;;;;;;12970475;22;20901;-77
2023/11/10 10:25:35;;;;;;;13.85;7.25;;;;;;;;;;12996883;22;20432;-82
2023/11/10 10:30:38;;;;;;;10.85;6.65;;;;;;;;;;12976482;22;20405;-83
2023/11/10 10:35:43;;;;;;;37.03;17.17;;;;;;;;;;12979975;22;21065;-82
2023/11/10 10:40:45;;;;;;;13.43;7.87;;;;;;;;;;12977779;22;20386;-83
2023/11/10 10:45:48;;;;;;;14.27;8.40;;;;;;;;;;12979398;22;20421;-84
2023/11/10 10:50:56;;;;;;;12.77;8.05;;;;;;;;;;12978667;22;20370;-84
2023/11/10 10:55:58;;;;;;;15.80;8.35;;;;;;;;;;13000391;22;20363;-84
2023/11/10 11:01:03;;;;;;;12.07;7.78;;;;;;;;;;12979429;22;20383;-83
2023/11/10 11:06:22;;;;;;;28.17;13.48;;;;;;;;;;12978503;22;20367;-83
2023/11/10 11:12:01;;;;;;;38.28;22.13;;;;;;;;;;12979377;22;20363;-83
2023/11/10 11:17:32;;;;;;;21.17;12.13;;;;;;;;;;12979047;22;20420;-83
2023/11/10 11:22:38;;;;;;;13.40;7.78;;;;;;;;;;12978063;22;20405;-83
2023/11/10 11:27:41;;;;;;;12.07;7.65;;;;;;;;;;12978614;22;20384;-83
2023/11/10 11:32:44;;;;;;;13.40;8.27;;;;;;;;;;12976961;22;20459;-84
2023/11/10 11:37:48;;;;;;;13.43;8.20;;;;;;;;;;13001450;22;20676;-84
2023/11/10 11:42:50;;;;;;;13.60;7.40;;;;;;;;;;12982404;22;20440;-84
2023/11/10 11:47:53;;;;;;;12.40;8.00;;;;;;;;;;12982691;22;20366;-83
2023/11/10 11:52:56;;;;;;;15.15;8.85;;;;;;;;;;12982698;22;20456;-84
2023/11/10 11:58:01;;;;;;;13.20;7.43;;;;;;;;;;13003344;22;20359;-83
2023/11/10 12:03:05;;;;;;;12.80;8.18;;;;;;;;;;12981998;22;20382;-83
2023/11/10 12:08:10;;;;;;;13.43;7.90;;;;;;;;;;12954665;22;20424;-83
2023/11/10 12:13:13;;;;;;;14.25;8.63;;;;;;;;;;12981883;22;20891;-84
2023/11/10 12:18:17;;;;;;;11.90;7.72;;;;;;;;;;12977181;22;20409;-84
2023/11/10 12:23:21;;;;;;;13.38;7.97;;;;;;;;;;12977647;22;20448;-84
2023/11/10 12:28:24;;;;;;;13.13;8.60;;;;;;;;;;12978479;22;20367;-84
2023/11/10 12:33:29;;;;;;;17.17;10.10;;;;;;;;;;12971232;22;20846;-83
2023/11/10 12:38:35;;;;;;;11.02;7.32;;;;;;;;;;12968922;22;20726;-85
2023/11/10 12:43:37;;;;;;;10.85;7.70;;;;;;;;;;12969375;22;20390;-85
2023/11/10 12:48:41;;;;;;;11.30;7.72;;;;;;;;;;12970059;22;20444;-85
2023/11/10 12:53:45;;;;;;;11.07;7.15;;;;;;;;;;12973608;22;20367;-85
2023/11/10 12:58:49;;;;;;;10.55;7.07;;;;;;;;;;12969183;22;20386;-84
2023/11/10 13:03:52;;;;;;;15.93;10.50;;;;;;;;;;12968670;22;20428;-85
2023/11/10 13:08:58;;;;;;;9.07;6.68;;;;;;;;;;12970456;22;20451;-82
2023/11/10 13:14:00;;;;;;;8.80;6.72;;;;;;;;;;12969242;22;20367;-83
2023/11/10 13:19:04;;;;;;;9.13;6.83;;;;;;;;;;12969918;22;20404;-83
2023/11/10 13:24:09;;;;;;;9.80;6.32;;;;;;;;;;12968857;22;20374;-80
2023/11/10 13:29:11;;;;;;;10.50;7.03;;;;;;;;;;12969246;22;20432;-83
2023/11/10 13:39:45;;;;;;;10.50;7.20;;;;;;;;;;12951138;22;20379;-82
2023/11/10 13:44:48;;;;;;;10.70;6.80;;;;;;;;;;12967972;22;20393;-82
2023/11/10 13:50:05;;;;;;;13.00;8.98;;;;;;;;;;12971359;22;20363;-83
2023/11/10 13:55:09;;;;;;;9.93;6.95;;;;;;;;;;12976049;22;20425;-83
2023/11/10 14:00:13;;;;;;;9.77;7.40;;;;;;;;;;12973880;22;20379;-82
2023/11/10 14:05:15;;;;;;;11.65;7.82;;;;;;;;;;12976340;22;20753;-83
2023/11/10 14:10:20;;;;;;;9.55;7.13;;;;;;;;;;12976975;22;20367;-84
2023/11/10 14:15:22;;;;;;;10.77;7.57;;;;;;;;;;12974243;22;20877;-83
2023/11/10 14:20:26;;;;;;;10.60;7.30;;;;;;;;;;12973423;22;20866;-84
2023/11/10 14:25:30;;;;;;;8.27;6.55;;;;;;;;;;12976674;22;20405;-83
2023/11/10 14:30:33;;;;;;;9.93;6.88;;;;;;;;;;12976242;22;20367;-84
2023/11/10 14:35:35;;;;;;;9.25;6.60;;;;;;;;;;12976468;22;20432;-83
2023/11/10 14:40:42;;;;;;;9.80;6.43;;;;;;;;;;12975192;22;20371;-83
2023/11/10 14:45:44;;;;;;;7.88;6.03;;;;;;;;;;12974704;22;20664;-83
2023/11/10 14:50:47;;;;;;;7.63;5.70;;;;;;;;;;12976769;22;20429;-83
2023/11/10 14:55:56;;;;;;;8.13;6.33;;;;;;;;;;12972484;22;20367;-83
2023/11/10 15:01:03;;;;;;;9.13;5.70;;;;;;;;;;12973839;22;21586;-83
2023/11/10 15:06:07;;;;;;;7.80;6.23;;;;;;;;;;12975301;22;20367;-83
2023/11/10 15:11:12;;;;;;;12.88;6.78;;;;;;;;;;12949704;22;20363;-83
2023/11/10 15:16:17;;;;;;;8.80;6.18;;;;;;;;;;12978229;22;20374;-84
2023/11/10 15:21:20;;;;;;;10.55;6.80;;;;;;;;;;12978128;22;20464;-83
2023/11/10 15:26:23;;;;;;;8.85;6.80;;;;;;;;;;12979253;22;20371;-84
2023/11/10 15:31:29;;;;;;;11.15;8.60;;;;;;;;;;12980385;22;20371;-83
2023/11/10 15:36:33;;;;;;;10.32;7.57;;;;;;;;;;13003378;22;20351;-84
2023/11/10 15:41:37;;;;;;;11.67;7.03;;;;;;;;;;12981079;22;20719;-82
2023/11/10 15:46:41;;;;;;;14.65;8.57;;;;;;;;;;12980522;22;20362;-83
2023/11/10 15:51:45;;;;;;;19.92;7.93;;;;;;;;;;12976747;22;20362;-84
2023/11/10 15:56:49;;;;;;;10.45;7.43;;;;;;;;;;12980248;22;20424;-84
2023/11/10 16:01:51;;;;;;;12.55;8.20;;;;;;;;;;12974205;22;20390;-84
2023/11/10 16:06:53;;;;;;;15.75;10.48;;;;;;;;;;12982912;22;20367;-84
2023/11/10 16:11:57;;;;;;;13.93;8.20;;;;;;;;;;12975498;22;20475;-82
2023/11/10 16:16:59;;;;;;;14.93;8.65;;;;;;;;;;12971559;22;20408;-83
2023/11/10 16:22:02;;;;;;;13.18;7.82;;;;;;;;;;12972651;22;20383;-82
2023/11/10 16:27:07;;;;;;;11.93;7.00;;;;;;;;;;12971926;22;20484;-83
2023/11/10 16:32:10;;;;;;;10.20;7.18;;;;;;;;;;12967228;22;20429;-82
2023/11/10 16:37:12;;;;;;;9.87;7.20;;;;;;;;;;12989027;22;20398;-83
2023/11/10 16:42:16;;;;;;;9.30;6.80;;;;;;;;;;12969377;22;20374;-84
2023/11/10 16:47:19;;;;;;;10.17;7.07;;;;;;;;;;12973612;22;20400;-83
2023/11/10 16:52:22;;;;;;;9.55;7.53;;;;;;;;;;12973056;22;20937;-83
2023/11/10 16:57:25;;;;;;;11.32;7.85;;;;;;;;;;12977027;22;20366;-83
2023/11/10 17:02:28;;;;;;;9.57;6.83;;;;;;;;;;12971117;22;20448;-84
2023/11/10 17:07:35;;;;;;;9.40;7.15;;;;;;;;;;12972088;22;20378;-83
2023/11/10 17:12:41;;;;;;;10.07;6.70;;;;;;;;;;12967025;22;20819;-84
2023/11/10 17:17:45;;;;;;;10.63;7.25;;;;;;;;;;12968512;22;20378;-84
2023/11/10 17:22:48;;;;;;;11.27;7.30;;;;;;;;;;12968592;22;20926;-84
2023/11/10 17:27:52;;;;;;;12.68;8.35;;;;;;;;;;12969069;22;20420;-84
2023/11/10 17:32:55;;;;;;;9.80;7.47;;;;;;;;;;12969810;22;20436;-84
2023/11/10 17:37:57;;;;;;;9.03;6.97;;;;;;;;;;12964608;22;20439;-83
2023/11/10 17:43:01;;;;;;;13.93;10.17;;;;;;;;;;12965179;22;20471;-85
2023/11/10 17:48:03;;;;;;;11.45;8.43;;;;;;;;;;12957103;22;20428;-85
2023/11/10 17:53:07;;;;;;;11.52;8.80;;;;;;;;;;12968233;22;20842;-85
2023/11/10 17:58:13;;;;;;;15.13;11.02;;;;;;;;;;12968450;22;20434;-85
2023/11/10 18:03:15;;;;;;;17.67;12.90;;;;;;;;;;12966448;22;20390;-85
2023/11/10 18:08:17;;;;;;;17.77;11.13;;;;;;;;;;12965193;22;20370;-85
2023/11/10 18:13:21;;;;;;;14.63;9.80;;;;;;;;;;12966016;22;20820;-86
2023/11/10 18:18:23;;;;;;;12.80;9.57;;;;;;;;;;12965863;22;20374;-85
2023/11/10 18:23:28;;;;;;;14.82;9.70;;;;;;;;;;12963212;22;20837;-86
2023/11/10 18:28:32;;;;;;;15.33;11.47;;;;;;;;;;12963871;22;20396;-87
2023/11/10 18:33:35;;;;;;;16.27;11.18;;;;;;;;;;12962884;22;20766;-87
2023/11/10 18:38:38;;;;;;;13.17;10.07;;;;;;;;;;12980443;22;20440;-87
2023/11/10 18:43:41;;;;;;;14.35;9.98;;;;;;;;;;12980960;22;20401;-86
2023/11/10 18:48:44;;;;;;;16.95;11.00;;;;;;;;;;12958647;22;20378;-86
2023/11/10 18:53:47;;;;;;;20.85;13.00;;;;;;;;;;12960287;22;20382;-85
2023/11/10 18:58:52;;;;;;;21.98;14.95;;;;;;;;;;12960959;22;20436;-84
2023/11/10 19:03:55;;;;;;;20.52;14.68;;;;;;;;;;12966503;22;20386;-84
2023/11/10 19:08:57;;;;;;;22.48;15.38;;;;;;;;;;12974685;22;20370;-84
2023/11/10 19:14:01;;;;;;;18.50;13.63;;;;;;;;;;12964017;22;20447;-84
2023/11/10 19:19:03;;;;;;;17.93;13.10;;;;;;;;;;12965535;22;20421;-85
2023/11/10 19:24:06;;;;;;;18.53;13.07;;;;;;;;;;12978317;22;20471;-84
2023/11/10 19:29:11;;;;;;;18.70;12.67;;;;;;;;;;12979124;22;20393;-85
2023/11/10 19:34:14;;;;;;;18.53;13.60;;;;;;;;;;12965724;22;20975;-85
2023/11/10 19:39:16;;;;;;;18.90;13.32;;;;;;;;;;12963122;22;20433;-85
2023/11/10 19:44:20;;;;;;;19.90;14.80;;;;;;;;;;12986140;22;20370;-84
2023/11/10 19:49:22;;;;;;;18.67;13.27;;;;;;;;;;12963088;22;20371;-85
2023/11/10 19:54:24;;;;;;;22.15;14.88;;;;;;;;;;12963094;22;20375;-84
2023/11/10 19:59:28;;;;;;;20.42;13.50;;;;;;;;;;12965031;22;20374;-84
2023/11/10 20:04:30;;;;;;;22.13;14.15;;;;;;;;;;12965320;22;20386;-83
2023/11/10 20:09:33;;;;;;;22.30;15.30;;;;;;;;;;12976850;22;20379;-84
2023/11/10 20:14:37;;;;;;;20.52;14.52;;;;;;;;;;12966839;22;20413;-84
2023/11/10 20:19:41;;;;;;;21.40;14.85;;;;;;;;;;12966930;22;21120;-83
2023/11/10 20:24:43;;;;;;;21.90;15.50;;;;;;;;;;12967266;22;20440;-84
2023/11/10 20:29:51;;;;;;;23.92;15.93;;;;;;;;;;12966535;22;20375;-81
2023/11/10 20:34:53;;;;;;;25.40;16.10;;;;;;;;;;12967869;22;20382;-83
2023/11/10 20:39:55;;;;;;;24.70;16.15;;;;;;;;;;12964437;22;20375;-81
2023/11/10 20:44:59;;;;;;;24.27;16.80;;;;;;;;;;12966774;22;20413;-82
2023/11/10 20:50:03;;;;;;;27.88;17.98;;;;;;;;;;12955755;22;20438;-83
2023/11/10 20:55:08;;;;;;;26.63;17.90;;;;;;;;;;12956359;22;20783;-83
2023/11/10 21:00:14;;;;;;;29.95;18.33;;;;;;;;;;12962563;22;20378;-84
2023/11/10 21:05:16;;;;;;;33.70;20.73;;;;;;;;;;12964963;22;20437;-83
2023/11/10 21:10:20;;;;;;;28.70;17.85;;;;;;;;;;12964822;22;20370;-83
2023/11/10 21:15:27;;;;;;;29.02;17.63;;;;;;;;;;12967231;22;20375;-83
2023/11/10 21:20:29;;;;;;;28.70;17.77;;;;;;;;;;12977596;22;20444;-83
2023/11/10 21:25:31;;;;;;;29.70;17.98;;;;;;;;;;12963317;22;21429;-84
2023/11/10 21:30:40;;;;;;;30.80;18.85;;;;;;;;;;12963508;22;20379;-82
2023/11/10 21:35:43;;;;;;;28.67;18.30;;;;;;;;;;12964731;22;20409;-83
2023/11/10 21:40:46;;;;;;;28.80;18.02;;;;;;;;;;12984920;22;20436;-83
2023/11/10 21:45:51;;;;;;;26.13;17.75;;;;;;;;;;12968243;22;20386;-84
2023/11/10 21:50:54;;;;;;;28.65;18.08;;;;;;;;;;12969614;22;20480;-84
2023/11/10 21:55:56;;;;;;;27.85;18.00;;;;;;;;;;12968875;22;20440;-83
2023/11/10 22:01:00;;;;;;;29.25;17.77;;;;;;;;;;12973068;22;20378;-83
2023/11/10 22:06:03;;;;;;;29.17;16.93;;;;;;;;;;12968571;22;20444;-83
2023/11/10 22:11:07;;;;;;;29.50;17.88;;;;;;;;;;12978057;22;20374;-84
2023/11/10 22:16:11;;;;;;;26.23;17.17;;;;;;;;;;12979203;22;20367;-82
2023/11/10 22:21:13;;;;;;;27.25;16.80;;;;;;;;;;12981954;22;20370;-83
2023/11/10 22:26:16;;;;;;;28.67;16.80;;;;;;;;;;12969315;22;20386;-83
2023/11/10 22:31:19;;;;;;;29.08;17.33;;;;;;;;;;12970096;22;20696;-83
2023/11/10 22:36:22;;;;;;;28.33;17.42;;;;;;;;;;12970674;22;20436;-81
2023/11/10 22:41:25;;;;;;;23.83;16.08;;;;;;;;;;12969503;22;21393;-82
2023/11/10 22:46:28;;;;;;;27.85;17.55;;;;;;;;;;12991095;22;20374;-83
2023/11/10 22:51:32;;;;;;;28.77;19.43;;;;;;;;;;12969888;22;20374;-84
2023/11/10 22:56:34;;;;;;;29.90;18.20;;;;;;;;;;12968889;22;20409;-80
2023/11/10 23:01:39;;;;;;;28.93;18.10;;;;;;;;;;12970623;22;20711;-83
2023/11/10 23:06:41;;;;;;;28.20;17.33;;;;;;;;;;12971771;22;20375;-83
2023/11/10 23:11:44;;;;;;;30.35;18.40;;;;;;;;;;12999027;22;20393;-84
2023/11/10 23:16:47;;;;;;;28.77;18.13;;;;;;;;;;12975072;22;20947;-84
2023/11/10 23:21:50;;;;;;;30.48;18.77;;;;;;;;;;12997053;22;20370;-84
2023/11/10 23:26:53;;;;;;;32.15;17.63;;;;;;;;;;12975862;22;20460;-84
2023/11/10 23:31:56;;;;;;;26.87;18.13;;;;;;;;;;12976657;22;21332;-84
2023/11/10 23:36:59;;;;;;;26.95;17.45;;;;;;;;;;12978330;22;20355;-84
2023/11/10 23:42:03;;;;;;;30.38;18.35;;;;;;;;;;12979839;22;20366;-84
2023/11/10 23:47:06;;;;;;;32.03;18.08;;;;;;;;;;12982249;22;20375;-84
2023/11/10 23:52:09;;;;;;;29.37;17.00;;;;;;;;;;12980430;22;20363;-84
2023/11/10 23:57:11;;;;;;;28.13;17.75;;;;;;;;;;12981498;22;20424;-84
